sensor_id;sensor_type;location;lat;lon;timestamp;temperature;humidity
67557;DHT22;54387;53.526;49.300;2023-07-13T00:00:26;16.90;60.80
67557;DHT22;54387;53.526;49.300;2023-07-13T00:02:52;16.90;60.70
67557;DHT22;54387;53.526;49.300;2023-07-13T00:05:23;16.90;60.80
67557;DHT22;54387;53.526;49.300;2023-07-13T00:07:50;16.90;60.80
67557;DHT22;54387;53.526;49.300;2023-07-13T00:10:17;16.90;60.70
67557;DHT22;54387;53.526;49.300;2023-07-13T00:12:43;16.90;60.70
67557;DHT22;54387;53.526;49.300;2023-07-13T00:15:23;16.90;60.70
67557;DHT22;54387;53.526;49.300;2023-07-13T00:17:54;16.90;60.80
67557;DHT22;54387;53.526;49.300;2023-07-13T00:20:22;16.90;60.80
67557;DHT22;54387;53.526;49.300;2023-07-13T00:22:52;16.80;60.80
67557;DHT22;54387;53.526;49.300;2023-07-13T00:25:21;16.80;60.80
67557;DHT22;54387;53.526;49.300;2023-07-13T00:27:50;16.80;61.00
67557;DHT22;54387;53.526;49.300;2023-07-13T00:30:17;16.70;61.10
67557;DHT22;54387;53.526;49.300;2023-07-13T00:32:43;16.60;61.10
67557;DHT22;54387;53.526;49.300;2023-07-13T00:35:09;16.60;61.30
67557;DHT22;54387;53.526;49.300;2023-07-13T00:37:36;16.50;61.30
67557;DHT22;54387;53.526;49.300;2023-07-13T00:40:04;16.40;61.40
67557;DHT22;54387;53.526;49.300;2023-07-13T00:42:31;16.40;61.60
67557;DHT22;54387;53.526;49.300;2023-07-13T00:47:40;16.20;61.70
67557;DHT22;54387;53.526;49.300;2023-07-13T00:50:12;16.20;61.80
67557;DHT22;54387;53.526;49.300;2023-07-13T00:52:43;16.20;61.90
67557;DHT22;54387;53.526;49.300;2023-07-13T00:55:11;16.10;62.00
67557;DHT22;54387;53.526;49.300;2023-07-13T00:57:38;16.10;62.10
67557;DHT22;54387;53.526;49.300;2023-07-13T01:00:06;16.10;62.10
67557;DHT22;54387;53.526;49.300;2023-07-13T01:02:40;16.10;62.20
67557;DHT22;54387;53.526;49.300;2023-07-13T01:05:12;16.10;62.20
67557;DHT22;54387;53.526;49.300;2023-07-13T01:07:41;16.20;62.20
67557;DHT22;54387;53.526;49.300;2023-07-13T01:10:33;16.30;62.10
67557;DHT22;54387;53.526;49.300;2023-07-13T01:13:09;16.40;61.90
67557;DHT22;54387;53.526;49.300;2023-07-13T01:15:39;16.50;61.80
67557;DHT22;54387;53.526;49.300;2023-07-13T01:18:09;16.60;61.70
67557;DHT22;54387;53.526;49.300;2023-07-13T01:20:37;16.70;61.60
67557;DHT22;54387;53.526;49.300;2023-07-13T01:23:06;16.90;61.50
67557;DHT22;54387;53.526;49.300;2023-07-13T01:25:33;17.00;61.40
67557;DHT22;54387;53.526;49.300;2023-07-13T01:28:00;17.10;61.30
67557;DHT22;54387;53.526;49.300;2023-07-13T01:30:26;17.20;61.20
67557;DHT22;54387;53.526;49.300;2023-07-13T01:32:52;17.30;61.00
67557;DHT22;54387;53.526;49.300;2023-07-13T01:35:18;17.30;60.90
67557;DHT22;54387;53.526;49.300;2023-07-13T01:37:44;17.40;60.70
67557;DHT22;54387;53.526;49.300;2023-07-13T01:40:11;17.40;60.30
67557;DHT22;54387;53.526;49.300;2023-07-13T01:42:38;17.40;60.00
67557;DHT22;54387;53.526;49.300;2023-07-13T01:45:04;17.50;59.90
67557;DHT22;54387;53.526;49.300;2023-07-13T01:47:31;17.40;60.00
67557;DHT22;54387;53.526;49.300;2023-07-13T01:49:57;17.50;60.10
67557;DHT22;54387;53.526;49.300;2023-07-13T01:52:23;17.50;60.20
67557;DHT22;54387;53.526;49.300;2023-07-13T01:54:50;17.50;60.20
67557;DHT22;54387;53.526;49.300;2023-07-13T01:57:16;17.50;60.30
67557;DHT22;54387;53.526;49.300;2023-07-13T01:59:42;17.50;60.10
67557;DHT22;54387;53.526;49.300;2023-07-13T02:02:08;17.50;60.10
67557;DHT22;54387;53.526;49.300;2023-07-13T02:04:35;17.50;60.00
67557;DHT22;54387;53.526;49.300;2023-07-13T02:07:02;17.50;59.60
67557;DHT22;54387;53.526;49.300;2023-07-13T02:09:28;17.60;59.30
67557;DHT22;54387;53.526;49.300;2023-07-13T02:11:54;17.60;59.00
67557;DHT22;54387;53.526;49.300;2023-07-13T02:14:21;17.60;58.70
67557;DHT22;54387;53.526;49.300;2023-07-13T02:16:47;17.70;58.30
67557;DHT22;54387;53.526;49.300;2023-07-13T02:19:14;17.70;58.10
67557;DHT22;54387;53.526;49.300;2023-07-13T02:21:40;17.70;57.70
67557;DHT22;54387;53.526;49.300;2023-07-13T02:24:07;17.70;57.70
67557;DHT22;54387;53.526;49.300;2023-07-13T02:26:33;17.60;57.70
67557;DHT22;54387;53.526;49.300;2023-07-13T02:28:59;17.60;57.70
67557;DHT22;54387;53.526;49.300;2023-07-13T02:31:26;17.60;57.90
67557;DHT22;54387;53.526;49.300;2023-07-13T02:33:52;17.60;58.00
67557;DHT22;54387;53.526;49.300;2023-07-13T02:36:18;17.60;58.10
67557;DHT22;54387;53.526;49.300;2023-07-13T02:38:45;17.60;58.20
67557;DHT22;54387;53.526;49.300;2023-07-13T02:41:11;17.60;58.60
67557;DHT22;54387;53.526;49.300;2023-07-13T02:43:38;17.60;58.90
67557;DHT22;54387;53.526;49.300;2023-07-13T02:46:04;17.60;59.30
67557;DHT22;54387;53.526;49.300;2023-07-13T02:48:33;17.60;59.50
67557;DHT22;54387;53.526;49.300;2023-07-13T02:51:00;17.60;59.80
67557;DHT22;54387;53.526;49.300;2023-07-13T02:53:27;17.60;60.00
67557;DHT22;54387;53.526;49.300;2023-07-13T02:55:53;17.60;60.00
67557;DHT22;54387;53.526;49.300;2023-07-13T02:58:19;17.60;60.00
67557;DHT22;54387;53.526;49.300;2023-07-13T03:00:48;17.60;60.10
67557;DHT22;54387;53.526;49.300;2023-07-13T03:03:16;17.60;60.20
67557;DHT22;54387;53.526;49.300;2023-07-13T03:05:44;17.60;60.40
67557;DHT22;54387;53.526;49.300;2023-07-13T03:08:11;17.60;60.40
67557;DHT22;54387;53.526;49.300;2023-07-13T03:10:38;17.60;60.50
67557;DHT22;54387;53.526;49.300;2023-07-13T03:13:05;17.60;60.60
67557;DHT22;54387;53.526;49.300;2023-07-13T03:15:31;17.60;60.70
67557;DHT22;54387;53.526;49.300;2023-07-13T03:17:58;17.70;60.80
67557;DHT22;54387;53.526;49.300;2023-07-13T03:20:24;17.80;60.80
67557;DHT22;54387;53.526;49.300;2023-07-13T03:22:50;17.80;60.70
67557;DHT22;54387;53.526;49.300;2023-07-13T03:25:16;17.90;61.10
67557;DHT22;54387;53.526;49.300;2023-07-13T03:27:43;17.90;60.50
67557;DHT22;54387;53.526;49.300;2023-07-13T03:30:09;17.90;60.50
67557;DHT22;54387;53.526;49.300;2023-07-13T03:32:35;18.00;60.40
67557;DHT22;54387;53.526;49.300;2023-07-13T03:35:02;18.10;60.40
67557;DHT22;54387;53.526;49.300;2023-07-13T03:37:28;18.10;60.40
67557;DHT22;54387;53.526;49.300;2023-07-13T03:39:54;18.20;60.30
67557;DHT22;54387;53.526;49.300;2023-07-13T03:42:20;18.30;60.20
67557;DHT22;54387;53.526;49.300;2023-07-13T03:44:47;18.30;60.10
67557;DHT22;54387;53.526;49.300;2023-07-13T03:47:18;18.40;60.20
67557;DHT22;54387;53.526;49.300;2023-07-13T03:49:44;18.40;60.20
67557;DHT22;54387;53.526;49.300;2023-07-13T03:52:11;18.30;60.30
67557;DHT22;54387;53.526;49.300;2023-07-13T03:54:38;18.30;60.40
67557;DHT22;54387;53.526;49.300;2023-07-13T03:57:04;18.30;60.40
67557;DHT22;54387;53.526;49.300;2023-07-13T03:59:31;18.40;60.50
67557;DHT22;54387;53.526;49.300;2023-07-13T04:01:57;18.30;60.40
67557;DHT22;54387;53.526;49.300;2023-07-13T04:04:23;18.40;60.50
67557;DHT22;54387;53.526;49.300;2023-07-13T04:06:49;18.40;60.40
67557;DHT22;54387;53.526;49.300;2023-07-13T04:09:19;18.40;60.40
67557;DHT22;54387;53.526;49.300;2023-07-13T04:11:45;18.40;60.50
67557;DHT22;54387;53.526;49.300;2023-07-13T04:14:11;18.50;60.50
67557;DHT22;54387;53.526;49.300;2023-07-13T04:16:37;18.60;60.40
67557;DHT22;54387;53.526;49.300;2023-07-13T04:19:03;18.70;60.40
67557;DHT22;54387;53.526;49.300;2023-07-13T04:21:31;18.70;60.30
67557;DHT22;54387;53.526;49.300;2023-07-13T04:23:58;18.60;60.40
67557;DHT22;54387;53.526;49.300;2023-07-13T04:26:24;18.60;60.50
67557;DHT22;54387;53.526;49.300;2023-07-13T04:28:51;18.60;60.60
67557;DHT22;54387;53.526;49.300;2023-07-13T04:31:18;18.40;60.50
67557;DHT22;54387;53.526;49.300;2023-07-13T04:33:44;18.30;60.80
67557;DHT22;54387;53.526;49.300;2023-07-13T04:36:10;18.20;61.60
67557;DHT22;54387;53.526;49.300;2023-07-13T04:38:36;18.20;60.70
67557;DHT22;54387;53.526;49.300;2023-07-13T04:41:05;18.20;60.40
67557;DHT22;54387;53.526;49.300;2023-07-13T04:43:33;18.10;60.10
67557;DHT22;54387;53.526;49.300;2023-07-13T04:46:08;18.20;60.20
67557;DHT22;54387;53.526;49.300;2023-07-13T04:48:35;18.30;60.10
67557;DHT22;54387;53.526;49.300;2023-07-13T04:51:02;18.40;59.80
67557;DHT22;54387;53.526;49.300;2023-07-13T04:53:29;18.60;59.30
67557;DHT22;54387;53.526;49.300;2023-07-13T04:55:56;18.90;59.20
67557;DHT22;54387;53.526;49.300;2023-07-13T04:58:23;19.10;58.40
67557;DHT22;54387;53.526;49.300;2023-07-13T05:00:50;19.10;58.10
67557;DHT22;54387;53.526;49.300;2023-07-13T05:03:16;19.20;58.00
67557;DHT22;54387;53.526;49.300;2023-07-13T05:05:43;19.20;57.90
67557;DHT22;54387;53.526;49.300;2023-07-13T05:08:09;19.20;58.10
67557;DHT22;54387;53.526;49.300;2023-07-13T05:10:36;19.00;57.90
67557;DHT22;54387;53.526;49.300;2023-07-13T05:13:02;18.90;58.00
67557;DHT22;54387;53.526;49.300;2023-07-13T05:15:29;18.60;58.40
67557;DHT22;54387;53.526;49.300;2023-07-13T05:17:55;18.50;58.90
67557;DHT22;54387;53.526;49.300;2023-07-13T05:20:21;18.40;59.60
67557;DHT22;54387;53.526;49.300;2023-07-13T05:22:47;18.40;60.40
67557;DHT22;54387;53.526;49.300;2023-07-13T05:25:14;18.30;61.00
67557;DHT22;54387;53.526;49.300;2023-07-13T05:27:40;18.20;61.60
67557;DHT22;54387;53.526;49.300;2023-07-13T05:30:07;18.20;61.90
67557;DHT22;54387;53.526;49.300;2023-07-13T05:32:36;18.10;62.40
67557;DHT22;54387;53.526;49.300;2023-07-13T05:35:03;18.10;62.70
67557;DHT22;54387;53.526;49.300;2023-07-13T05:37:29;18.00;62.90
67557;DHT22;54387;53.526;49.300;2023-07-13T05:39:55;18.00;63.30
67557;DHT22;54387;53.526;49.300;2023-07-13T05:42:22;18.00;63.40
67557;DHT22;54387;53.526;49.300;2023-07-13T05:44:49;18.00;63.50
67557;DHT22;54387;53.526;49.300;2023-07-13T05:47:15;18.10;63.50
67557;DHT22;54387;53.526;49.300;2023-07-13T05:49:42;18.10;63.50
67557;DHT22;54387;53.526;49.300;2023-07-13T05:52:08;18.20;63.60
67557;DHT22;54387;53.526;49.300;2023-07-13T05:54:34;18.20;63.60
67557;DHT22;54387;53.526;49.300;2023-07-13T05:57:00;18.30;63.80
67557;DHT22;54387;53.526;49.300;2023-07-13T05:59:26;18.40;63.90
67557;DHT22;54387;53.526;49.300;2023-07-13T06:01:52;18.50;63.80
67557;DHT22;54387;53.526;49.300;2023-07-13T06:04:19;18.50;63.40
67557;DHT22;54387;53.526;49.300;2023-07-13T06:06:47;18.60;63.10
67557;DHT22;54387;53.526;49.300;2023-07-13T06:09:14;18.80;62.70
67557;DHT22;54387;53.526;49.300;2023-07-13T06:11:40;18.90;62.20
67557;DHT22;54387;53.526;49.300;2023-07-13T06:14:06;19.10;62.20
67557;DHT22;54387;53.526;49.300;2023-07-13T06:16:32;19.30;61.70
67557;DHT22;54387;53.526;49.300;2023-07-13T06:18:59;19.60;61.40
67557;DHT22;54387;53.526;49.300;2023-07-13T06:21:25;19.70;60.40
67557;DHT22;54387;53.526;49.300;2023-07-13T06:23:51;19.80;60.00
67557;DHT22;54387;53.526;49.300;2023-07-13T06:26:20;20.00;59.50
67557;DHT22;54387;53.526;49.300;2023-07-13T06:28:47;20.20;59.30
67557;DHT22;54387;53.526;49.300;2023-07-13T06:31:14;20.40;59.20
67557;DHT22;54387;53.526;49.300;2023-07-13T06:33:40;20.40;57.60
67557;DHT22;54387;53.526;49.300;2023-07-13T06:36:07;20.40;56.60
67557;DHT22;54387;53.526;49.300;2023-07-13T06:38:34;20.40;54.70
67557;DHT22;54387;53.526;49.300;2023-07-13T06:41:00;20.40;54.70
67557;DHT22;54387;53.526;49.300;2023-07-13T06:43:27;20.40;54.50
67557;DHT22;54387;53.526;49.300;2023-07-13T06:45:55;20.50;55.00
67557;DHT22;54387;53.526;49.300;2023-07-13T06:48:22;20.60;54.20
67557;DHT22;54387;53.526;49.300;2023-07-13T06:50:49;20.70;54.00
67557;DHT22;54387;53.526;49.300;2023-07-13T06:53:17;20.60;53.50
67557;DHT22;54387;53.526;49.300;2023-07-13T06:55:44;20.70;54.00
67557;DHT22;54387;53.526;49.300;2023-07-13T06:58:11;20.70;52.50
67557;DHT22;54387;53.526;49.300;2023-07-13T07:00:37;20.70;51.10
67557;DHT22;54387;53.526;49.300;2023-07-13T07:03:06;20.70;51.50
67557;DHT22;54387;53.526;49.300;2023-07-13T07:05:32;20.60;51.60
67557;DHT22;54387;53.526;49.300;2023-07-13T07:07:58;20.60;51.80
67557;DHT22;54387;53.526;49.300;2023-07-13T07:10:25;20.50;52.10
67557;DHT22;54387;53.526;49.300;2023-07-13T07:12:51;20.40;52.10
67557;DHT22;54387;53.526;49.300;2023-07-13T07:15:18;20.40;52.10
67557;DHT22;54387;53.526;49.300;2023-07-13T07:17:44;20.40;51.60
67557;DHT22;54387;53.526;49.300;2023-07-13T07:20:11;20.50;51.30
67557;DHT22;54387;53.526;49.300;2023-07-13T07:22:37;20.60;50.90
67557;DHT22;54387;53.526;49.300;2023-07-13T07:25:04;20.60;51.00
67557;DHT22;54387;53.526;49.300;2023-07-13T07:27:31;20.50;50.50
67557;DHT22;54387;53.526;49.300;2023-07-13T07:29:58;20.60;49.10
67557;DHT22;54387;53.526;49.300;2023-07-13T07:32:25;20.70;49.00
67557;DHT22;54387;53.526;49.300;2023-07-13T07:34:51;20.90;49.10
67557;DHT22;54387;53.526;49.300;2023-07-13T07:37:17;21.10;49.30
67557;DHT22;54387;53.526;49.300;2023-07-13T07:39:44;21.40;49.20
67557;DHT22;54387;53.526;49.300;2023-07-13T07:42:11;21.60;48.60
67557;DHT22;54387;53.526;49.300;2023-07-13T07:44:40;21.80;47.00
67557;DHT22;54387;53.526;49.300;2023-07-13T07:47:07;21.80;46.40
67557;DHT22;54387;53.526;49.300;2023-07-13T07:49:34;21.80;45.90
67557;DHT22;54387;53.526;49.300;2023-07-13T07:52:00;21.80;45.80
67557;DHT22;54387;53.526;49.300;2023-07-13T07:54:26;21.80;45.60
67557;DHT22;54387;53.526;49.300;2023-07-13T07:56:52;21.90;45.70
67557;DHT22;54387;53.526;49.300;2023-07-13T07:59:19;22.10;45.50
67557;DHT22;54387;53.526;49.300;2023-07-13T08:01:45;22.50;45.30
67557;DHT22;54387;53.526;49.300;2023-07-13T08:04:13;22.90;44.80
67557;DHT22;54387;53.526;49.300;2023-07-13T08:06:40;23.20;43.70
67557;DHT22;54387;53.526;49.300;2023-07-13T08:09:06;23.40;42.50
67557;DHT22;54387;53.526;49.300;2023-07-13T08:11:34;23.50;42.70
67557;DHT22;54387;53.526;49.300;2023-07-13T08:14:00;23.60;41.80
67557;DHT22;54387;53.526;49.300;2023-07-13T08:16:26;23.70;40.80
67557;DHT22;54387;53.526;49.300;2023-07-13T08:18:53;23.80;40.10
67557;DHT22;54387;53.526;49.300;2023-07-13T08:21:19;23.80;39.80
67557;DHT22;54387;53.526;49.300;2023-07-13T08:23:46;23.70;40.40
67557;DHT22;54387;53.526;49.300;2023-07-13T08:26:12;23.70;40.70
67557;DHT22;54387;53.526;49.300;2023-07-13T08:28:38;23.70;41.00
67557;DHT22;54387;53.526;49.300;2023-07-13T08:31:06;23.80;40.70
67557;DHT22;54387;53.526;49.300;2023-07-13T08:33:36;23.80;41.00
67557;DHT22;54387;53.526;49.300;2023-07-13T08:36:04;23.90;40.70
67557;DHT22;54387;53.526;49.300;2023-07-13T08:38:31;24.20;40.90
67557;DHT22;54387;53.526;49.300;2023-07-13T08:40:57;24.40;40.20
67557;DHT22;54387;53.526;49.300;2023-07-13T08:43:30;24.30;39.00
67557;DHT22;54387;53.526;49.300;2023-07-13T08:46:03;24.10;39.10
67557;DHT22;54387;53.526;49.300;2023-07-13T08:48:37;23.80;39.40
67557;DHT22;54387;53.526;49.300;2023-07-13T08:54:07;23.40;40.20
67557;DHT22;54387;53.526;49.300;2023-07-13T08:56:36;23.30;40.60
67557;DHT22;54387;53.526;49.300;2023-07-13T08:59:10;23.30;41.00
67557;DHT22;54387;53.526;49.300;2023-07-13T09:04:50;23.20;40.90
67557;DHT22;54387;53.526;49.300;2023-07-13T09:10:31;23.20;41.70
67557;DHT22;54387;53.526;49.300;2023-07-13T09:15:56;24.20;41.20
67557;DHT22;54387;53.526;49.300;2023-07-13T09:18:34;24.50;40.40
67557;DHT22;54387;53.526;49.300;2023-07-13T09:21:25;24.60;40.70
67557;DHT22;54387;53.526;49.300;2023-07-13T09:23:56;24.70;39.20
67557;DHT22;54387;53.526;49.300;2023-07-13T09:26:28;24.70;38.90
67557;DHT22;54387;53.526;49.300;2023-07-13T09:29:20;25.00;38.60
67557;DHT22;54387;53.526;49.300;2023-07-13T09:31:52;25.50;38.70
67557;DHT22;54387;53.526;49.300;2023-07-13T09:34:19;26.20;37.70
67557;DHT22;54387;53.526;49.300;2023-07-13T09:36:45;27.00;36.30
67557;DHT22;54387;53.526;49.300;2023-07-13T09:42:20;28.60;33.30
67557;DHT22;54387;53.526;49.300;2023-07-13T09:44:51;29.60;32.00
67557;DHT22;54387;53.526;49.300;2023-07-13T09:47:27;30.30;30.60
67557;DHT22;54387;53.526;49.300;2023-07-13T09:50:01;30.90;29.50
67557;DHT22;54387;53.526;49.300;2023-07-13T09:55:36;31.70;28.40
67557;DHT22;54387;53.526;49.300;2023-07-13T09:58:04;32.20;27.70
67557;DHT22;54387;53.526;49.300;2023-07-13T10:00:31;32.50;27.50
67557;DHT22;54387;53.526;49.300;2023-07-13T10:03:18;33.10;27.30
67557;DHT22;54387;53.526;49.300;2023-07-13T10:05:48;33.70;26.70
67557;DHT22;54387;53.526;49.300;2023-07-13T10:08:35;34.50;26.10
67557;DHT22;54387;53.526;49.300;2023-07-13T10:11:10;34.30;25.80
67557;DHT22;54387;53.526;49.300;2023-07-13T10:13:56;33.00;26.10
67557;DHT22;54387;53.526;49.300;2023-07-13T10:16:26;31.40;27.10
67557;DHT22;54387;53.526;49.300;2023-07-13T10:18:59;29.60;28.70
67557;DHT22;54387;53.526;49.300;2023-07-13T10:21:32;27.70;31.10
67557;DHT22;54387;53.526;49.300;2023-07-13T10:24:25;25.90;33.80
67557;DHT22;54387;53.526;49.300;2023-07-13T10:27:18;24.20;37.10
67557;DHT22;54387;53.526;49.300;2023-07-13T10:29:53;22.60;40.80
67557;DHT22;54387;53.526;49.300;2023-07-13T10:32:22;21.20;44.80
67557;DHT22;54387;53.526;49.300;2023-07-13T10:34:51;20.20;50.80
67557;DHT22;54387;53.526;49.300;2023-07-13T10:37:33;19.00;55.90
67557;DHT22;54387;53.526;49.300;2023-07-13T10:40:03;17.90;58.50
67557;DHT22;54387;53.526;49.300;2023-07-13T10:42:42;17.10;61.20
67557;DHT22;54387;53.526;49.300;2023-07-13T10:45:15;16.50;62.30
67557;DHT22;54387;53.526;49.300;2023-07-13T10:47:43;16.20;63.70
67557;DHT22;54387;53.526;49.300;2023-07-13T10:50:25;15.90;63.80
67557;DHT22;54387;53.526;49.300;2023-07-13T10:52:54;15.80;64.10
67557;DHT22;54387;53.526;49.300;2023-07-13T10:58:22;15.70;65.10
67557;DHT22;54387;53.526;49.300;2023-07-13T11:00:51;15.70;65.60
67557;DHT22;54387;53.526;49.300;2023-07-13T11:03:22;15.70;65.90
67557;DHT22;54387;53.526;49.300;2023-07-13T11:05:50;15.80;66.20
67557;DHT22;54387;53.526;49.300;2023-07-13T11:08:33;15.80;66.40
67557;DHT22;54387;53.526;49.300;2023-07-13T11:10:59;15.90;66.90
67557;DHT22;54387;53.526;49.300;2023-07-13T11:13:55;15.90;67.20
67557;DHT22;54387;53.526;49.300;2023-07-13T11:18:52;16.20;67.60
67557;DHT22;54387;53.526;49.300;2023-07-13T11:21:26;16.30;67.70
67557;DHT22;54387;53.526;49.300;2023-07-13T11:26:50;16.80;67.80
67557;DHT22;54387;53.526;49.300;2023-07-13T11:31:57;17.30;67.50
67557;DHT22;54387;53.526;49.300;2023-07-13T11:34:27;17.50;67.30
67557;DHT22;54387;53.526;49.300;2023-07-13T11:36:56;17.70;67.00
67557;DHT22;54387;53.526;49.300;2023-07-13T11:39:31;17.90;66.90
67557;DHT22;54387;53.526;49.300;2023-07-13T11:42:00;18.20;66.60
67557;DHT22;54387;53.526;49.300;2023-07-13T11:44:29;18.50;66.20
67557;DHT22;54387;53.526;49.300;2023-07-13T11:46:58;18.80;65.90
67557;DHT22;54387;53.526;49.300;2023-07-13T11:49:29;19.40;65.70
67557;DHT22;54387;53.526;49.300;2023-07-13T11:51:56;20.40;64.40
67557;DHT22;54387;53.526;49.300;2023-07-13T11:54:32;21.70;62.90
67557;DHT22;54387;53.526;49.300;2023-07-13T11:59:40;24.40;55.70
67557;DHT22;54387;53.526;49.300;2023-07-13T12:02:25;24.70;51.10
67557;DHT22;54387;53.526;49.300;2023-07-13T12:04:53;24.40;47.00
67557;DHT22;54387;53.526;49.300;2023-07-13T12:07:19;23.90;48.20
67557;DHT22;54387;53.526;49.300;2023-07-13T12:09:46;23.70;48.50
67557;DHT22;54387;53.526;49.300;2023-07-13T12:12:13;23.50;48.90
67557;DHT22;54387;53.526;49.300;2023-07-13T12:14:40;23.80;48.50
67557;DHT22;54387;53.526;49.300;2023-07-13T12:17:20;24.80;47.70
67557;DHT22;54387;53.526;49.300;2023-07-13T12:19:48;27.00;44.30
67557;DHT22;54387;53.526;49.300;2023-07-13T12:22:16;29.40;42.60
67557;DHT22;54387;53.526;49.300;2023-07-13T12:24:45;32.00;39.50
67557;DHT22;54387;53.526;49.300;2023-07-13T12:27:23;34.30;37.30
67557;DHT22;54387;53.526;49.300;2023-07-13T12:30:01;36.00;32.30
67557;DHT22;54387;53.526;49.300;2023-07-13T12:32:29;37.30;30.20
67557;DHT22;54387;53.526;49.300;2023-07-13T12:35:13;38.50;29.90
67557;DHT22;54387;53.526;49.300;2023-07-13T12:37:45;39.60;27.10
67557;DHT22;54387;53.526;49.300;2023-07-13T12:40:17;40.30;26.20
67557;DHT22;54387;53.526;49.300;2023-07-13T12:42:49;40.80;26.20
67557;DHT22;54387;53.526;49.300;2023-07-13T12:45:25;41.50;26.10
67557;DHT22;54387;53.526;49.300;2023-07-13T12:47:57;42.00;23.60
67557;DHT22;54387;53.526;49.300;2023-07-13T12:50:36;42.00;22.80
67557;DHT22;54387;53.526;49.300;2023-07-13T12:53:05;41.70;22.10
67557;DHT22;54387;53.526;49.300;2023-07-13T12:55:42;41.50;22.90
67557;DHT22;54387;53.526;49.300;2023-07-13T12:58:25;40.80;22.80
67557;DHT22;54387;53.526;49.300;2023-07-13T13:00:54;39.70;22.30
67557;DHT22;54387;53.526;49.300;2023-07-13T13:03:36;39.00;23.00
67557;DHT22;54387;53.526;49.300;2023-07-13T13:06:04;38.90;22.60
67557;DHT22;54387;53.526;49.300;2023-07-13T13:08:33;38.20;21.50
67557;DHT22;54387;53.526;49.300;2023-07-13T13:11:01;37.00;21.90
67557;DHT22;54387;53.526;49.300;2023-07-13T13:13:27;37.00;22.20
67557;DHT22;54387;53.526;49.300;2023-07-13T13:15:54;37.50;21.30
67557;DHT22;54387;53.526;49.300;2023-07-13T13:18:23;37.60;21.60
67557;DHT22;54387;53.526;49.300;2023-07-13T13:20:50;36.50;21.70
67557;DHT22;54387;53.526;49.300;2023-07-13T13:23:19;35.10;22.40
67557;DHT22;54387;53.526;49.300;2023-07-13T13:25:50;33.60;23.20
67557;DHT22;54387;53.526;49.300;2023-07-13T13:28:19;32.10;24.20
67557;DHT22;54387;53.526;49.300;2023-07-13T13:30:48;30.80;25.20
67557;DHT22;54387;53.526;49.300;2023-07-13T13:33:16;29.90;26.40
67557;DHT22;54387;53.526;49.300;2023-07-13T13:35:43;29.40;26.80
67557;DHT22;54387;53.526;49.300;2023-07-13T13:38:14;29.10;27.30
67557;DHT22;54387;53.526;49.300;2023-07-13T13:40:42;28.90;27.10
67557;DHT22;54387;53.526;49.300;2023-07-13T13:43:29;28.50;28.00
67557;DHT22;54387;53.526;49.300;2023-07-13T13:45:57;27.90;28.40
67557;DHT22;54387;53.526;49.300;2023-07-13T13:48:35;27.30;29.10
67557;DHT22;54387;53.526;49.300;2023-07-13T13:51:15;27.00;30.30
67557;DHT22;54387;53.526;49.300;2023-07-13T13:53:42;26.70;30.40
67557;DHT22;54387;53.526;49.300;2023-07-13T13:56:08;26.70;31.20
67557;DHT22;54387;53.526;49.300;2023-07-13T13:58:35;26.80;30.10
67557;DHT22;54387;53.526;49.300;2023-07-13T14:01:01;26.90;30.00
67557;DHT22;54387;53.526;49.300;2023-07-13T14:03:27;26.60;30.20
67557;DHT22;54387;53.526;49.300;2023-07-13T14:05:54;26.10;31.10
67557;DHT22;54387;53.526;49.300;2023-07-13T14:08:23;25.80;31.40
67557;DHT22;54387;53.526;49.300;2023-07-13T14:10:51;25.40;31.70
67557;DHT22;54387;53.526;49.300;2023-07-13T14:13:23;25.00;32.10
67557;DHT22;54387;53.526;49.300;2023-07-13T14:15:53;24.70;33.20
67557;DHT22;54387;53.526;49.300;2023-07-13T14:18:19;24.50;33.40
67557;DHT22;54387;53.526;49.300;2023-07-13T14:20:46;24.30;33.50
67557;DHT22;54387;53.526;49.300;2023-07-13T14:23:14;24.10;34.00
67557;DHT22;54387;53.526;49.300;2023-07-13T14:25:45;23.90;34.70
67557;DHT22;54387;53.526;49.300;2023-07-13T14:28:25;23.60;35.50
67557;DHT22;54387;53.526;49.300;2023-07-13T14:30:52;23.50;36.30
67557;DHT22;54387;53.526;49.300;2023-07-13T14:33:20;23.30;37.90
67557;DHT22;54387;53.526;49.300;2023-07-13T14:35:48;23.20;36.90
67557;DHT22;54387;53.526;49.300;2023-07-13T14:38:17;23.10;37.00
67557;DHT22;54387;53.526;49.300;2023-07-13T14:40:44;23.00;37.30
67557;DHT22;54387;53.526;49.300;2023-07-13T14:43:14;22.90;37.10
67557;DHT22;54387;53.526;49.300;2023-07-13T14:45:43;22.80;37.50
67557;DHT22;54387;53.526;49.300;2023-07-13T14:48:19;22.60;37.90
67557;DHT22;54387;53.526;49.300;2023-07-13T14:50:46;22.40;37.50
67557;DHT22;54387;53.526;49.300;2023-07-13T14:53:13;22.20;37.70
67557;DHT22;54387;53.526;49.300;2023-07-13T14:55:39;22.00;38.20
67557;DHT22;54387;53.526;49.300;2023-07-13T14:58:06;21.90;38.60
67557;DHT22;54387;53.526;49.300;2023-07-13T15:00:33;21.80;38.80
67557;DHT22;54387;53.526;49.300;2023-07-13T15:03:00;21.80;38.90
67557;DHT22;54387;53.526;49.300;2023-07-13T15:05:29;21.80;38.90
67557;DHT22;54387;53.526;49.300;2023-07-13T15:07:58;21.80;39.10
67557;DHT22;54387;53.526;49.300;2023-07-13T15:10:31;21.80;39.50
67557;DHT22;54387;53.526;49.300;2023-07-13T15:13:13;21.70;39.70
67557;DHT22;54387;53.526;49.300;2023-07-13T15:15:42;21.70;39.80
67557;DHT22;54387;53.526;49.300;2023-07-13T15:18:13;21.70;39.90
67557;DHT22;54387;53.526;49.300;2023-07-13T15:20:41;21.70;39.50
67557;DHT22;54387;53.526;49.300;2023-07-13T15:23:09;21.80;39.70
67557;DHT22;54387;53.526;49.300;2023-07-13T15:25:36;21.70;39.90
67557;DHT22;54387;53.526;49.300;2023-07-13T15:28:02;21.70;40.00
67557;DHT22;54387;53.526;49.300;2023-07-13T15:30:35;21.70;40.20
67557;DHT22;54387;53.526;49.300;2023-07-13T15:33:16;21.60;40.50
67557;DHT22;54387;53.526;49.300;2023-07-13T15:35:45;21.50;40.90
67557;DHT22;54387;53.526;49.300;2023-07-13T15:38:23;21.40;40.90
67557;DHT22;54387;53.526;49.300;2023-07-13T15:40:50;21.30;41.10
67557;DHT22;54387;53.526;49.300;2023-07-13T15:43:18;21.20;41.50
67557;DHT22;54387;53.526;49.300;2023-07-13T15:45:45;21.10;41.80
67557;DHT22;54387;53.526;49.300;2023-07-13T15:48:16;21.10;42.00
67557;DHT22;54387;53.526;49.300;2023-07-13T15:50:54;21.10;42.60
67557;DHT22;54387;53.526;49.300;2023-07-13T15:53:25;21.00;42.70
67557;DHT22;54387;53.526;49.300;2023-07-13T15:55:54;20.90;42.70
67557;DHT22;54387;53.526;49.300;2023-07-13T15:58:21;20.80;42.70
67557;DHT22;54387;53.526;49.300;2023-07-13T16:00:48;20.80;43.30